createdAt,value
2022-12-24T00:01:39.470Z,-0.07
2022-12-24T00:04:08.328Z,-0.20
2022-12-24T00:06:37.007Z,-0.31
2022-12-24T00:09:06.142Z,-0.30
2022-12-24T00:11:34.971Z,-0.49
2022-12-24T00:14:03.831Z,-0.59
2022-12-24T00:16:32.903Z,-0.47
2022-12-24T00:19:01.778Z,-0.41
2022-12-24T00:21:30.542Z,-0.28
2022-12-24T00:23:59.397Z,-0.43
2022-12-24T00:26:28.085Z,-0.62
2022-12-24T00:28:57.330Z,-0.35
2022-12-24T00:31:26.706Z,-0.75
2022-12-24T00:33:55.860Z,-0.52
2022-12-24T00:36:24.945Z,-0.47
2022-12-24T00:38:53.894Z,-0.53
2022-12-24T00:41:25.830Z,-0.54
2022-12-24T00:43:58.902Z,-0.30
2022-12-24T00:46:29.857Z,-0.58
2022-12-24T00:48:59.396Z,-0.69
2022-12-24T00:51:28.527Z,-0.52
2022-12-24T00:53:58.851Z,-0.53
2022-12-24T00:56:28.453Z,-0.70
2022-12-24T00:58:57.237Z,-0.92
2022-12-24T01:01:28.021Z,-0.67
2022-12-24T01:04:17.251Z,-0.83
2022-12-24T01:06:46.564Z,-0.84
2022-12-24T01:09:15.244Z,-0.83
2022-12-24T01:11:44.182Z,-0.84
2022-12-24T01:14:13.139Z,-1.26
2022-12-24T01:16:42.053Z,-1.27
2022-12-24T01:19:11.022Z,-1.40
2022-12-24T01:21:39.967Z,-1.55
2022-12-24T01:24:08.690Z,-1.76
2022-12-24T01:26:38.358Z,-1.71
2022-12-24T01:29:06.995Z,-1.76
2022-12-24T01:31:36.246Z,-1.60
2022-12-24T01:34:05.166Z,-1.67
2022-12-24T01:36:34.378Z,-1.54
2022-12-24T01:39:02.963Z,-1.77
2022-12-24T01:41:52.737Z,-1.59
2022-12-24T01:44:37.443Z,-1.27
2022-12-24T01:47:13.036Z,-1.28
2022-12-24T01:49:48.389Z,-1.27
2022-12-24T01:52:30.845Z,-1.35
2022-12-24T01:55:12.248Z,-1.58
2022-12-24T01:58:09.004Z,-1.02
2022-12-24T02:00:38.108Z,-1.13
2022-12-24T02:03:07.374Z,-1.48
2022-12-24T02:05:54.821Z,-1.28
2022-12-24T02:08:24.415Z,-1.47
2022-12-24T02:10:53.278Z,-1.43
2022-12-24T02:13:22.792Z,-1.31
2022-12-24T02:16:03.311Z,-1.13
2022-12-24T02:18:32.160Z,-1.02
2022-12-24T02:21:39.455Z,-0.94
2022-12-24T02:24:32.542Z,-0.95
2022-12-24T02:27:29.159Z,-1.11
2022-12-24T02:29:57.963Z,-1.22
2022-12-24T02:32:46.332Z,-1.19
2022-12-24T02:35:37.646Z,-0.77
2022-12-24T02:38:39.375Z,-0.28
2022-12-24T02:41:21.650Z,0.00
2022-12-24T02:43:52.645Z,0.30
2022-12-24T02:46:29.124Z,0.66
2022-12-24T02:49:00.286Z,1.07
2022-12-24T02:51:29.279Z,1.26
2022-12-24T02:54:00.390Z,1.66
2022-12-24T02:56:47.981Z,2.18
2022-12-24T02:59:35.594Z,2.49
2022-12-24T03:02:40.298Z,1.97
2022-12-24T03:05:21.172Z,2.23
2022-12-24T03:08:06.792Z,2.02
2022-12-24T03:11:02.416Z,1.95
2022-12-24T03:13:31.697Z,2.12
2022-12-24T03:16:01.919Z,2.13
2022-12-24T03:18:32.163Z,2.21
2022-12-24T03:21:19.516Z,2.28
2022-12-24T03:23:49.870Z,1.95
2022-12-24T03:26:20.609Z,2.29
2022-12-24T03:28:51.033Z,2.32
2022-12-24T03:31:21.001Z,2.31
2022-12-24T03:33:50.171Z,2.04
2022-12-24T03:36:19.207Z,2.54
2022-12-24T03:38:48.151Z,2.46
2022-12-24T03:41:17.258Z,2.69
2022-12-24T03:43:46.036Z,2.65
2022-12-24T03:46:15.299Z,2.63
2022-12-24T03:48:44.838Z,2.75
2022-12-24T03:51:22.366Z,2.64
2022-12-24T03:53:54.195Z,2.96
2022-12-24T03:56:24.026Z,3.08
2022-12-24T03:58:53.046Z,2.91
2022-12-24T04:01:22.336Z,2.93
2022-12-24T04:03:51.544Z,2.82
2022-12-24T04:06:20.349Z,3.20
2022-12-24T04:08:48.982Z,3.06
2022-12-24T04:11:19.210Z,3.33
2022-12-24T04:13:48.107Z,3.29
2022-12-24T04:16:18.518Z,3.14
2022-12-24T04:18:48.135Z,3.45
2022-12-24T04:21:17.352Z,3.67
2022-12-24T04:23:46.241Z,3.69
2022-12-24T04:26:15.969Z,3.77
2022-12-24T04:28:45.074Z,3.74
2022-12-24T04:31:17.203Z,3.90
2022-12-24T04:33:46.943Z,3.74
2022-12-24T04:36:18.811Z,3.68
2022-12-24T04:38:49.481Z,3.93
2022-12-24T04:41:24.764Z,4.19
2022-12-24T04:43:55.730Z,4.37
2022-12-24T04:46:27.896Z,4.29
2022-12-24T04:48:57.721Z,3.88
2022-12-24T04:51:27.839Z,4.38
2022-12-24T04:53:58.205Z,4.46
2022-12-24T04:56:30.213Z,4.51
2022-12-24T04:59:00.819Z,4.84
2022-12-24T05:01:31.937Z,5.29
2022-12-24T05:04:01.051Z,5.47
2022-12-24T05:06:34.071Z,5.82
2022-12-24T05:09:03.458Z,6.11
2022-12-24T05:11:32.777Z,6.07
2022-12-24T05:14:01.586Z,6.73
2022-12-24T05:16:30.245Z,6.72
2022-12-24T05:18:59.255Z,6.98
2022-12-24T05:21:28.260Z,7.24
2022-12-24T05:24:16.432Z,7.28
2022-12-24T05:26:52.851Z,8.02
2022-12-24T05:29:23.314Z,8.16
2022-12-24T05:31:52.271Z,8.38
2022-12-24T05:34:21.263Z,8.65
2022-12-24T05:36:50.171Z,8.82
2022-12-24T05:39:19.785Z,8.94
2022-12-24T05:41:48.928Z,8.95
2022-12-24T05:44:18.278Z,8.84
2022-12-24T05:46:47.071Z,8.32
2022-12-24T05:49:16.336Z,8.32
2022-12-24T05:51:45.370Z,8.32
2022-12-24T05:54:14.210Z,8.10
2022-12-24T05:56:43.028Z,7.62
2022-12-24T05:59:11.901Z,7.70
2022-12-24T06:01:40.987Z,7.51
2022-12-24T06:04:10.366Z,6.84
2022-12-24T06:06:39.108Z,6.87
2022-12-24T06:09:08.428Z,6.67
2022-12-24T06:11:37.572Z,6.93
2022-12-24T06:14:06.693Z,6.83
2022-12-24T06:16:35.635Z,7.15
2022-12-24T06:19:04.658Z,7.02
2022-12-24T06:21:33.404Z,7.57
2022-12-24T06:24:02.738Z,7.88
2022-12-24T06:26:31.718Z,8.15
2022-12-24T06:29:00.832Z,8.59
2022-12-24T06:31:29.894Z,8.95
2022-12-24T06:33:59.161Z,9.71
2022-12-24T06:36:27.945Z,10.00
2022-12-24T06:38:57.190Z,11.52
2022-12-24T06:41:27.430Z,11.47
2022-12-24T06:43:57.358Z,12.49
2022-12-24T06:46:26.341Z,13.50
2022-12-24T06:48:56.278Z,13.69
2022-12-24T06:51:25.870Z,13.14
2022-12-24T06:53:56.256Z,14.31
2022-12-24T06:56:25.151Z,13.94
2022-12-24T06:58:56.772Z,14.33
2022-12-24T07:01:29.300Z,15.60
2022-12-24T07:03:58.263Z,15.31
2022-12-24T07:06:29.751Z,15.21
2022-12-24T07:08:59.259Z,15.65
2022-12-24T07:11:29.158Z,15.57
2022-12-24T07:13:58.919Z,15.90
2022-12-24T07:16:28.542Z,15.93
2022-12-24T07:18:57.799Z,16.37
2022-12-24T07:21:27.132Z,15.21
2022-12-24T07:23:58.824Z,14.56
2022-12-24T07:26:27.911Z,16.05
2022-12-24T07:28:56.545Z,16.25
2022-12-24T07:31:25.667Z,16.22
2022-12-24T07:33:54.699Z,15.98
2022-12-24T07:36:25.759Z,15.81
2022-12-24T07:38:54.817Z,16.12
2022-12-24T07:41:23.511Z,16.82
2022-12-24T07:43:52.773Z,15.61
2022-12-24T07:46:21.499Z,16.29
2022-12-24T07:48:50.887Z,16.52
2022-12-24T07:51:20.604Z,16.65
2022-12-24T07:53:49.699Z,16.25
2022-12-24T07:56:18.631Z,17.06
2022-12-24T07:58:47.803Z,16.46
2022-12-24T08:01:16.464Z,16.85
2022-12-24T08:03:46.061Z,17.20
2022-12-24T08:06:15.263Z,16.93
2022-12-24T08:08:44.574Z,17.88
2022-12-24T08:11:13.833Z,17.84
2022-12-24T08:13:43.243Z,18.61
2022-12-24T08:16:12.269Z,18.39
2022-12-24T08:18:41.483Z,18.35
2022-12-24T08:21:11.288Z,17.50
2022-12-24T08:23:40.258Z,17.23
2022-12-24T08:26:11.652Z,17.72
2022-12-24T08:28:40.524Z,16.74
2022-12-24T08:31:09.369Z,16.33
2022-12-24T08:33:38.619Z,16.56
2022-12-24T08:36:07.527Z,16.69
2022-12-24T08:38:37.381Z,17.01
2022-12-24T08:41:06.101Z,17.33
2022-12-24T08:43:34.913Z,17.16
2022-12-24T08:46:06.104Z,16.82
2022-12-24T08:48:35.281Z,18.20
2022-12-24T08:51:09.474Z,18.22
2022-12-24T08:53:39.058Z,17.58
2022-12-24T08:56:10.720Z,15.74
2022-12-24T08:58:40.195Z,17.07
2022-12-24T09:01:14.932Z,16.52
2022-12-24T09:03:44.811Z,16.89
2022-12-24T09:06:13.722Z,16.39
2022-12-24T09:08:42.946Z,16.28
2022-12-24T09:11:17.921Z,15.95
2022-12-24T09:13:47.346Z,15.58
2022-12-24T09:16:16.438Z,15.15
2022-12-24T09:18:45.464Z,14.89
2022-12-24T09:21:16.747Z,14.65
2022-12-24T09:23:47.992Z,14.39
2022-12-24T09:26:25.002Z,14.46
2022-12-24T09:28:54.968Z,13.80
2022-12-24T09:31:23.765Z,13.91
2022-12-24T09:33:52.815Z,13.89
2022-12-24T09:36:22.527Z,13.60
2022-12-24T09:38:52.622Z,13.05
2022-12-24T09:41:35.006Z,12.81
2022-12-24T09:44:22.114Z,13.43
2022-12-24T09:46:53.110Z,13.52
2022-12-24T09:49:30.356Z,13.40
2022-12-24T09:52:06.000Z,12.96
2022-12-24T09:54:50.288Z,12.50
2022-12-24T09:57:30.529Z,12.92
2022-12-24T10:00:00.579Z,13.23
2022-12-24T10:02:29.509Z,12.95
2022-12-24T10:04:58.493Z,12.61
2022-12-24T10:07:40.896Z,12.94
2022-12-24T10:10:15.621Z,13.32
2022-12-24T10:13:05.359Z,13.09
2022-12-24T10:15:45.647Z,13.26
2022-12-24T10:18:36.852Z,13.65
2022-12-24T10:21:18.430Z,13.26
2022-12-24T10:24:16.466Z,13.11
2022-12-24T10:27:02.356Z,13.21
2022-12-24T10:29:37.191Z,13.08
2022-12-24T10:32:09.190Z,13.23
2022-12-24T10:34:46.284Z,13.14
2022-12-24T10:37:25.553Z,13.28
2022-12-24T10:39:54.819Z,12.82
2022-12-24T10:42:27.889Z,13.03
2022-12-24T10:45:03.616Z,12.87
2022-12-24T10:47:35.956Z,12.53
2022-12-24T10:50:25.520Z,11.90
2022-12-24T10:53:02.088Z,11.62
2022-12-24T10:55:31.091Z,11.40
2022-12-24T10:58:03.798Z,11.09
2022-12-24T11:00:36.469Z,10.26
2022-12-24T11:03:21.806Z,9.78
2022-12-24T11:06:14.890Z,9.43
2022-12-24T11:08:46.159Z,8.84
2022-12-24T11:11:18.702Z,8.43
2022-12-24T11:13:58.336Z,7.90
2022-12-24T11:16:38.218Z,7.34
2022-12-24T11:19:17.241Z,6.94
2022-12-24T11:21:46.515Z,6.70
2022-12-24T11:24:15.106Z,6.38
2022-12-24T11:26:46.149Z,5.86
2022-12-24T11:29:23.584Z,5.78
2022-12-24T11:31:53.783Z,5.23
2022-12-24T11:34:25.661Z,5.34
2022-12-24T11:36:58.280Z,4.83
2022-12-24T11:39:27.905Z,4.82
2022-12-24T11:41:56.683Z,4.53
2022-12-24T11:44:29.640Z,4.53
2022-12-24T11:46:58.827Z,4.30
2022-12-24T11:49:32.790Z,3.96
2022-12-24T11:52:26.309Z,4.04
2022-12-24T11:55:16.926Z,3.89
2022-12-24T11:58:18.927Z,3.60
2022-12-24T12:00:49.630Z,3.34
2022-12-24T12:03:33.687Z,3.17
2022-12-24T12:06:08.672Z,3.34
2022-12-24T12:08:39.393Z,3.21
2022-12-24T12:11:15.421Z,2.77
2022-12-24T12:13:47.780Z,3.18
2022-12-24T12:16:51.928Z,3.06
2022-12-24T12:19:24.275Z,2.91
2022-12-24T12:21:54.197Z,2.80
2022-12-24T12:24:32.413Z,2.89
2022-12-24T12:27:27.508Z,2.60
2022-12-24T12:30:07.383Z,2.74
2022-12-24T12:32:44.558Z,2.79
2022-12-24T12:35:28.619Z,2.71
2022-12-24T12:38:05.715Z,2.65
2022-12-24T12:40:51.987Z,2.56
2022-12-24T12:43:37.571Z,2.58
2022-12-24T12:46:27.806Z,2.63
2022-12-24T12:49:20.782Z,2.63
2022-12-24T12:52:23.783Z,2.69
2022-12-24T12:55:24.960Z,2.57
2022-12-24T12:57:59.007Z,2.43
2022-12-24T13:00:32.891Z,2.36
2022-12-24T13:03:02.427Z,2.49
2022-12-24T13:05:59.054Z,2.47
2022-12-24T13:08:40.415Z,2.51
2022-12-24T13:11:37.036Z,2.61
2022-12-24T13:14:29.926Z,2.60
2022-12-24T13:17:17.360Z,2.63
2022-12-24T13:20:04.033Z,2.65
2022-12-24T13:22:32.963Z,2.35
2022-12-24T13:25:02.161Z,2.57
2022-12-24T13:27:34.243Z,2.65
2022-12-24T13:30:09.956Z,2.63
2022-12-24T13:32:58.599Z,2.53
2022-12-24T13:35:36.916Z,2.52
2022-12-24T13:38:31.825Z,2.32
2022-12-24T13:41:41.294Z,1.93
2022-12-24T13:44:26.275Z,1.44
2022-12-24T13:47:04.547Z,1.17
2022-12-24T13:49:44.009Z,0.91
2022-12-24T13:52:12.830Z,0.91
2022-12-24T13:54:50.837Z,0.88
2022-12-24T13:57:34.739Z,0.80
2022-12-24T14:00:14.628Z,0.79
2022-12-24T14:03:02.411Z,0.71
2022-12-24T14:05:49.725Z,0.62
2022-12-24T14:08:24.714Z,0.53
2022-12-24T14:11:17.841Z,0.42
2022-12-24T14:13:49.777Z,0.61
2022-12-24T14:16:43.002Z,0.54
2022-12-24T14:19:11.988Z,0.51
2022-12-24T14:21:52.627Z,0.98
2022-12-24T14:24:28.524Z,0.93
2022-12-24T14:27:15.019Z,1.11
2022-12-24T14:29:53.825Z,0.92
2022-12-24T14:32:22.844Z,0.84
2022-12-24T14:35:22.065Z,0.77
2022-12-24T14:37:59.040Z,0.50
2022-12-24T14:40:30.385Z,0.55
2022-12-24T14:43:23.845Z,0.39
2022-12-24T14:46:17.201Z,0.48
2022-12-24T14:48:49.538Z,0.61
2022-12-24T14:51:44.257Z,0.72
2022-12-24T14:54:39.888Z,0.59
2022-12-24T14:57:14.327Z,0.65
2022-12-24T14:59:56.338Z,0.11
2022-12-24T15:02:51.807Z,0.35
2022-12-24T15:05:27.177Z,-0.17
2022-12-24T15:08:05.960Z,0.14
2022-12-24T15:10:41.361Z,-0.05
2022-12-24T15:13:50.188Z,-0.06
2022-12-24T15:16:39.403Z,-0.20
2022-12-24T15:19:25.877Z,-0.10
2022-12-24T15:21:56.535Z,-0.01
2022-12-24T15:24:37.674Z,-0.19
2022-12-24T15:27:17.883Z,-0.29
2022-12-24T15:29:49.582Z,-0.59
2022-12-24T15:32:20.824Z,-0.32
2022-12-24T15:34:55.900Z,-0.63
2022-12-24T15:37:29.606Z,-0.10
2022-12-24T15:40:12.155Z,-0.27
2022-12-24T15:42:45.292Z,-0.11
2022-12-24T15:45:26.596Z,-0.53
2022-12-24T15:48:07.343Z,-0.06
2022-12-24T15:50:44.252Z,0.09
2022-12-24T15:53:26.920Z,0.16
2022-12-24T15:56:02.935Z,0.36
2022-12-24T15:58:34.566Z,0.14
2022-12-24T16:01:06.491Z,0.39
2022-12-24T16:03:37.696Z,0.51
2022-12-24T16:06:12.703Z,0.62
2022-12-24T16:08:43.534Z,0.74
2022-12-24T16:11:37.190Z,0.66
2022-12-24T16:14:25.505Z,0.61
2022-12-24T16:16:56.040Z,0.19
2022-12-24T16:19:39.806Z,0.54
2022-12-24T16:22:29.610Z,0.12
2022-12-24T16:25:00.180Z,0.39
2022-12-24T16:27:29.210Z,0.52
2022-12-24T16:29:59.890Z,0.50
2022-12-24T16:32:37.525Z,0.73
2022-12-24T16:35:08.984Z,0.79
2022-12-24T16:37:37.986Z,1.01
2022-12-24T16:40:09.211Z,1.27
2022-12-24T16:43:00.599Z,1.49
2022-12-24T16:45:32.763Z,1.36
2022-12-24T16:48:02.762Z,1.26
2022-12-24T16:50:31.563Z,1.00
2022-12-24T16:53:00.457Z,0.79
2022-12-24T16:55:30.252Z,0.91
2022-12-24T16:58:00.290Z,0.95
2022-12-24T17:00:29.672Z,0.79
2022-12-24T17:02:58.508Z,0.33
2022-12-24T17:05:27.458Z,0.50
2022-12-24T17:07:56.728Z,0.54
2022-12-24T17:10:26.517Z,0.15
2022-12-24T17:12:58.461Z,0.09
2022-12-24T17:15:27.920Z,0.46
2022-12-24T17:17:57.065Z,0.42
2022-12-24T17:20:26.382Z,0.44
2022-12-24T17:22:55.614Z,-0.01
2022-12-24T17:25:26.287Z,0.82
2022-12-24T17:27:56.085Z,0.52
2022-12-24T17:30:25.406Z,0.67
2022-12-24T17:32:55.141Z,0.65
2022-12-24T17:35:24.296Z,0.92
2022-12-24T17:37:54.089Z,0.90
2022-12-24T17:40:22.862Z,0.88
2022-12-24T17:42:51.937Z,0.89
2022-12-24T17:45:20.981Z,0.74
2022-12-24T17:47:50.916Z,0.93
2022-12-24T17:50:20.623Z,1.32
2022-12-24T17:52:49.475Z,0.92
2022-12-24T17:55:19.661Z,0.89
2022-12-24T17:57:48.504Z,1.18
2022-12-24T18:00:18.100Z,1.01
2022-12-24T18:02:46.822Z,1.03
2022-12-24T18:05:16.760Z,1.11
2022-12-24T18:07:45.539Z,0.70
2022-12-24T18:10:14.323Z,1.06
2022-12-24T18:12:43.303Z,0.85
2022-12-24T18:15:12.442Z,1.04
2022-12-24T18:17:42.136Z,0.96
2022-12-24T18:20:11.737Z,0.76
2022-12-24T18:22:40.968Z,1.11
2022-12-24T18:25:10.570Z,1.03
2022-12-24T18:27:39.463Z,0.84
2022-12-24T18:30:10.277Z,0.87
2022-12-24T18:32:39.734Z,1.03
2022-12-24T18:35:09.708Z,0.85
2022-12-24T18:37:38.841Z,0.85
2022-12-24T18:40:10.121Z,0.98
2022-12-24T18:42:42.585Z,1.13
2022-12-24T18:45:12.031Z,1.00
2022-12-24T18:47:40.814Z,0.97
2022-12-24T18:50:11.398Z,0.94
2022-12-24T18:52:41.043Z,1.13
2022-12-24T18:55:10.706Z,0.49
2022-12-24T18:57:39.987Z,1.11
2022-12-24T19:00:09.867Z,1.05
2022-12-24T19:02:39.449Z,0.83
2022-12-24T19:05:09.798Z,0.56
2022-12-24T19:07:39.853Z,0.88
2022-12-24T19:10:09.761Z,0.66
2022-12-24T19:12:40.069Z,0.66
2022-12-24T19:15:09.600Z,0.85
2022-12-24T19:17:38.500Z,0.63
2022-12-24T19:20:09.565Z,0.70
2022-12-24T19:22:39.311Z,0.60
2022-12-24T19:25:09.757Z,0.37
2022-12-24T19:27:39.163Z,-0.10
2022-12-24T19:30:08.673Z,0.21
2022-12-24T19:32:37.505Z,0.23
2022-12-24T19:35:06.734Z,0.09
2022-12-24T19:37:35.625Z,0.05
2022-12-24T19:40:04.793Z,0.19
2022-12-24T19:42:33.924Z,-0.07
2022-12-24T19:45:02.887Z,-0.31
2022-12-24T19:47:31.903Z,-0.22
2022-12-24T19:50:00.834Z,-0.26
2022-12-24T19:52:29.456Z,-0.57
2022-12-24T19:54:59.157Z,-0.52
2022-12-24T19:57:28.587Z,-0.42
2022-12-24T19:59:57.801Z,-0.73
2022-12-24T20:02:27.184Z,-0.75
2022-12-24T20:04:56.431Z,-0.75
2022-12-24T20:07:25.294Z,-0.75
2022-12-24T20:09:54.099Z,-0.92
2022-12-24T20:12:23.028Z,-1.06
2022-12-24T20:14:52.328Z,-1.21
2022-12-24T20:17:21.209Z,-1.45
2022-12-24T20:19:50.248Z,-1.27
2022-12-24T20:22:19.117Z,-1.30
2022-12-24T20:24:48.215Z,-1.71
2022-12-24T20:27:17.178Z,-1.75
2022-12-24T20:29:46.560Z,-1.75
2022-12-24T20:32:17.712Z,-1.40
2022-12-24T20:34:47.581Z,-1.46
2022-12-24T20:37:16.190Z,-1.90
2022-12-24T20:39:45.458Z,-1.01
2022-12-24T20:42:14.509Z,-0.99
2022-12-24T20:44:44.030Z,-0.99
2022-12-24T20:47:12.861Z,-0.91
2022-12-24T20:49:41.911Z,-0.55
2022-12-24T20:52:10.984Z,-0.79
2022-12-24T20:54:40.664Z,-1.08
2022-12-24T20:57:09.578Z,-0.98
2022-12-24T20:59:39.023Z,-1.17
2022-12-24T21:02:08.441Z,-1.43
2022-12-24T21:04:37.820Z,-0.75
2022-12-24T21:07:06.902Z,-0.59
2022-12-24T21:09:35.718Z,-0.73
2022-12-24T21:12:24.198Z,-0.91
2022-12-24T21:14:53.604Z,-0.77
2022-12-24T21:17:23.410Z,-0.64
2022-12-24T21:19:52.693Z,-0.43
2022-12-24T21:22:21.347Z,-0.20
2022-12-24T21:24:50.575Z,-1.02
2022-12-24T21:27:19.364Z,-0.18
2022-12-24T21:29:48.563Z,-0.26
2022-12-24T21:32:18.033Z,-0.48
2022-12-24T21:34:47.268Z,-0.13
2022-12-24T21:37:16.024Z,-0.18
2022-12-24T21:39:44.951Z,-0.12
2022-12-24T21:42:13.710Z,-0.09
2022-12-24T21:44:43.211Z,0.23
2022-12-24T21:47:12.557Z,0.11
2022-12-24T21:49:59.985Z,0.37
2022-12-24T21:52:28.836Z,0.43
2022-12-24T21:54:57.460Z,0.30
2022-12-24T21:57:44.688Z,0.35
2022-12-24T22:00:23.033Z,0.49
2022-12-24T22:02:54.563Z,0.28
2022-12-24T22:05:25.765Z,0.42
2022-12-24T22:08:14.236Z,0.19
2022-12-24T22:11:01.678Z,-0.14
2022-12-24T22:13:31.984Z,0.09
2022-12-24T22:16:00.915Z,-0.09
2022-12-24T22:18:29.528Z,-0.01
2022-12-24T22:20:58.690Z,-0.52
2022-12-24T22:23:27.802Z,0.45
2022-12-24T22:25:57.338Z,-0.03
2022-12-24T22:28:26.409Z,0.03
2022-12-24T22:30:55.881Z,-0.19
2022-12-24T22:33:26.348Z,-0.21
2022-12-24T22:35:55.597Z,-0.29
2022-12-24T22:38:24.374Z,-0.28
2022-12-24T22:40:53.367Z,-0.51
2022-12-24T22:43:22.232Z,-0.69
2022-12-24T22:45:51.104Z,-0.72
2022-12-24T22:48:20.513Z,-1.03
2022-12-24T22:50:49.663Z,-0.68
2022-12-24T22:53:18.632Z,-0.76
2022-12-24T22:55:56.974Z,-1.27
2022-12-24T22:58:26.233Z,-0.96
2022-12-24T23:00:58.126Z,-1.22
2022-12-24T23:03:30.259Z,-1.12
2022-12-24T23:06:01.870Z,-1.19
2022-12-24T23:08:32.891Z,-1.38
2022-12-24T23:11:15.693Z,-1.17
2022-12-24T23:14:04.764Z,-1.34
2022-12-24T23:16:34.275Z,-1.13
2022-12-24T23:19:05.979Z,-1.04
2022-12-24T23:21:35.723Z,-0.81
2022-12-24T23:24:05.191Z,-0.16
2022-12-24T23:26:34.833Z,-0.64
2022-12-24T23:29:03.735Z,-0.68
2022-12-24T23:31:35.577Z,-0.34
2022-12-24T23:34:05.281Z,0.15
2022-12-24T23:36:34.080Z,-0.08
2022-12-24T23:39:03.537Z,-0.13
2022-12-24T23:41:32.692Z,-0.06
2022-12-24T23:44:01.448Z,-0.06
2022-12-24T23:46:31.202Z,-0.33
2022-12-24T23:49:00.741Z,-0.03
2022-12-24T23:51:29.915Z,0.36
2022-12-24T23:53:58.990Z,0.15
2022-12-24T23:56:27.847Z,-0.06
2022-12-24T23:58:56.912Z,0.22
